createdAt,value
2023-04-26T04:00:50.611Z,2.30
2023-04-26T04:04:53.570Z,1.70
2023-04-26T04:08:56.446Z,2.30
2023-04-26T04:12:59.757Z,2.50
2023-04-26T04:17:04.034Z,2.08
2023-04-26T04:21:07.172Z,2.25
2023-04-26T04:25:11.710Z,2.08
2023-04-26T04:29:15.838Z,2.55
2023-04-26T04:33:20.726Z,2.65
2023-04-26T04:37:23.620Z,2.70
2023-04-26T04:41:26.424Z,2.80
2023-04-26T04:45:29.046Z,3.20
2023-04-26T04:49:34.803Z,3.70
2023-04-26T04:53:38.096Z,4.03
2023-04-26T05:01:46.294Z,2.28
2023-04-26T05:05:51.859Z,2.38
2023-04-26T05:09:55.668Z,2.67
2023-04-26T05:13:58.624Z,2.63
2023-04-26T05:18:02.014Z,2.60
2023-04-26T05:30:28.301Z,3.00
2023-04-26T05:34:49.425Z,2.78
2023-04-26T05:38:54.182Z,3.17
2023-04-26T05:42:56.755Z,3.08
2023-04-26T05:46:59.492Z,2.95
2023-04-26T05:55:09.459Z,2.95
2023-04-26T05:59:13.597Z,2.92
2023-04-26T06:03:16.732Z,3.70
2023-04-26T06:07:19.661Z,3.58
2023-04-26T06:11:24.576Z,3.50
2023-04-26T06:15:27.815Z,3.58
2023-04-26T06:19:31.050Z,3.78
2023-04-26T06:23:33.560Z,3.77
2023-04-26T06:27:39.044Z,3.97
2023-04-26T06:31:42.008Z,4.30
2023-04-26T06:35:44.881Z,3.55
2023-04-26T06:39:48.277Z,3.50
2023-04-26T06:47:57.381Z,3.30
2023-04-26T06:52:01.170Z,3.45
2023-04-26T06:56:04.588Z,3.67
2023-04-26T07:00:10.672Z,3.90
2023-04-26T07:04:14.815Z,3.50
2023-04-26T07:08:17.539Z,3.75
2023-04-26T07:12:20.044Z,3.47
2023-04-26T07:16:23.974Z,3.50
2023-04-26T07:20:26.793Z,3.35
2023-04-26T07:24:29.376Z,3.13
2023-04-26T07:28:32.294Z,2.65
2023-04-26T07:32:36.304Z,3.08
2023-04-26T07:36:39.207Z,3.08
2023-04-26T07:40:43.151Z,2.40
2023-04-26T07:44:45.751Z,2.95
2023-04-26T07:48:49.608Z,3.17
2023-04-26T07:52:52.117Z,3.10
2023-04-26T07:56:55.429Z,2.45
2023-04-26T08:00:57.965Z,1.90
2023-04-26T08:05:02.138Z,2.28
2023-04-26T08:09:05.502Z,2.58
2023-04-26T08:13:08.176Z,2.00
2023-04-26T08:17:10.958Z,1.87
2023-04-26T08:21:14.882Z,2.47
2023-04-26T08:25:17.632Z,1.92
2023-04-26T08:29:20.700Z,2.07
2023-04-26T08:33:23.246Z,2.20
2023-04-26T08:37:29.230Z,1.80
2023-04-26T08:41:37.384Z,1.85
2023-04-26T08:45:45.064Z,1.90
2023-04-26T08:49:50.296Z,1.92
2023-04-26T08:53:54.591Z,1.48
2023-04-26T08:57:57.688Z,1.95
2023-04-26T09:02:02.991Z,1.95
2023-04-26T09:06:07.868Z,2.15
2023-04-26T09:10:13.865Z,2.17
2023-04-26T09:14:16.472Z,2.03
2023-04-26T09:18:20.776Z,1.92
2023-04-26T09:22:33.691Z,1.88
2023-04-26T09:26:37.723Z,1.80
2023-04-26T09:30:40.793Z,1.63
2023-04-26T09:34:47.602Z,2.35
2023-04-26T09:38:50.718Z,1.50
2023-04-26T09:43:05.824Z,1.10
2023-04-26T09:47:10.181Z,1.80
2023-04-26T09:51:12.970Z,1.15
2023-04-26T09:55:34.728Z,1.83
2023-04-26T09:59:44.347Z,2.10
2023-04-26T10:03:47.880Z,1.73
2023-04-26T10:07:51.787Z,1.90
2023-04-26T10:11:54.480Z,1.65
2023-04-26T10:15:58.418Z,2.00
2023-04-26T10:20:05.787Z,1.80
2023-04-26T10:24:09.219Z,1.92
2023-04-26T10:32:18.431Z,2.88
2023-04-26T10:36:21.249Z,1.80
2023-04-26T10:40:25.127Z,1.92
2023-04-26T10:44:41.813Z,1.70
2023-04-26T10:48:45.697Z,1.70
2023-04-26T10:53:06.764Z,1.70
2023-04-26T10:57:09.356Z,1.50
2023-04-26T11:01:17.774Z,1.70
2023-04-26T11:05:38.968Z,1.60
2023-04-26T11:09:49.019Z,1.63
2023-04-26T11:13:51.582Z,1.85
2023-04-26T11:17:54.157Z,1.50
2023-04-26T11:21:58.170Z,1.70
2023-04-26T11:26:02.878Z,1.70
2023-04-26T11:30:06.522Z,1.65
2023-04-26T11:34:09.083Z,1.70
2023-04-26T11:38:13.064Z,1.83
2023-04-26T11:42:15.598Z,1.83
2023-04-26T11:46:21.885Z,2.00
2023-04-26T11:50:26.704Z,2.00
2023-04-26T11:54:31.680Z,2.00
2023-04-26T11:58:34.252Z,2.00
2023-04-26T12:02:36.885Z,2.10
2023-04-26T12:06:43.685Z,1.60
2023-04-26T12:10:47.853Z,1.80
2023-04-26T12:14:50.357Z,1.98
2023-04-26T12:18:53.857Z,1.70
2023-04-26T12:23:04.041Z,1.67
2023-04-26T12:27:08.224Z,1.85
2023-04-26T12:31:11.301Z,2.20
2023-04-26T12:35:13.956Z,1.60
2023-04-26T12:39:16.807Z,2.10
2023-04-26T12:43:23.960Z,1.90
2023-04-26T12:47:26.568Z,2.00
2023-04-26T12:51:29.365Z,1.90
2023-04-26T12:55:33.026Z,2.50
2023-04-26T12:59:37.411Z,2.10
2023-04-26T13:03:40.627Z,2.60
2023-04-26T13:07:44.573Z,2.30
2023-04-26T13:11:47.165Z,2.00
2023-04-26T13:15:51.162Z,2.20
2023-04-26T13:19:53.941Z,1.98
2023-04-26T13:23:56.478Z,2.08
2023-04-26T13:27:59.022Z,2.40
2023-04-26T13:32:03.749Z,2.20
2023-04-26T13:36:07.248Z,2.03
2023-04-26T13:44:14.210Z,2.40
2023-04-26T13:48:18.331Z,2.33
2023-04-26T13:52:21.657Z,2.30
2023-04-26T13:56:26.169Z,2.33
2023-04-26T14:00:28.888Z,2.78
2023-04-26T14:04:33.034Z,1.90
2023-04-26T14:08:35.809Z,2.55
2023-04-26T14:12:38.418Z,2.37
2023-04-26T14:16:41.118Z,2.87
2023-04-26T14:20:45.101Z,2.25
2023-04-26T14:24:47.753Z,2.53
2023-04-26T14:28:50.692Z,2.50
2023-04-26T14:32:53.243Z,2.22
2023-04-26T14:37:01.231Z,2.10
2023-04-26T14:41:03.802Z,1.92
2023-04-26T14:45:07.610Z,2.13
2023-04-26T14:49:10.322Z,2.10
2023-04-26T14:53:14.197Z,2.43
2023-04-26T14:57:16.708Z,2.25
2023-04-26T15:01:19.382Z,2.65
2023-04-26T15:05:24.116Z,2.50
2023-04-26T15:09:30.269Z,2.22
2023-04-26T15:13:33.176Z,2.53
2023-04-26T15:17:35.865Z,2.37
2023-04-26T15:21:38.450Z,2.50
2023-04-26T15:25:42.323Z,2.60
2023-04-26T15:29:44.870Z,2.50
2023-04-26T15:33:48.209Z,2.73
2023-04-26T15:37:53.671Z,2.63
2023-04-26T15:41:57.796Z,2.60
2023-04-26T15:46:00.378Z,2.42
2023-04-26T15:50:04.635Z,2.60
2023-04-26T15:54:07.747Z,2.85
2023-04-26T15:58:11.815Z,2.65
2023-04-26T16:02:14.431Z,2.53
2023-04-26T16:06:17.359Z,2.67
2023-04-26T16:10:19.946Z,2.73
2023-04-26T16:14:23.760Z,2.83
2023-04-26T16:18:26.507Z,2.22
2023-04-26T16:22:29.179Z,2.23
2023-04-26T16:26:31.767Z,2.17
2023-04-26T16:30:35.584Z,2.80
2023-04-26T16:34:38.049Z,2.70
2023-04-26T16:38:40.808Z,2.30
2023-04-26T16:42:44.418Z,2.67
2023-04-26T16:46:48.300Z,2.00
2023-04-26T16:50:51.347Z,2.00
2023-04-26T16:54:53.880Z,2.60
2023-04-26T16:58:56.383Z,2.20
2023-04-26T17:03:00.320Z,2.30
2023-04-26T17:07:03.022Z,2.67
2023-04-26T17:11:05.877Z,2.20
2023-04-26T17:15:09.597Z,2.38
2023-04-26T17:19:13.516Z,2.40
2023-04-26T17:23:16.385Z,2.33
2023-04-26T17:27:18.916Z,2.53
2023-04-26T17:31:21.915Z,2.20
2023-04-26T17:35:26.101Z,2.20
2023-04-26T17:39:28.625Z,2.75
2023-04-26T17:43:31.248Z,2.60
2023-04-26T17:47:33.892Z,2.40
2023-04-26T17:51:37.793Z,2.30
2023-04-26T17:55:40.746Z,2.05
2023-04-26T17:59:43.256Z,2.40
2023-04-26T18:03:45.988Z,2.60
2023-04-26T18:07:49.991Z,2.75
2023-04-26T18:11:52.490Z,2.20
2023-04-26T18:15:55.804Z,2.28
2023-04-26T18:19:58.369Z,2.17
2023-04-26T18:24:02.248Z,2.17
2023-04-26T18:28:05.487Z,2.63
2023-04-26T18:32:08.023Z,3.40
2023-04-26T18:36:10.694Z,2.50
2023-04-26T18:40:14.786Z,2.20
2023-04-26T18:44:17.329Z,2.22
2023-04-26T18:48:19.869Z,2.67
2023-04-26T18:52:22.376Z,2.37
2023-04-26T18:56:26.274Z,2.75
2023-04-26T19:00:28.776Z,2.42
2023-04-26T19:04:31.482Z,2.60
2023-04-26T19:08:34.110Z,2.70
2023-04-26T19:12:38.066Z,2.73
2023-04-26T19:16:40.601Z,2.50
2023-04-26T19:20:43.083Z,2.08
2023-04-26T19:24:49.529Z,2.23
2023-04-26T19:28:55.479Z,2.38
2023-04-26T19:32:58.120Z,2.03
2023-04-26T19:37:00.692Z,2.20
2023-04-26T19:41:03.395Z,2.00
2023-04-26T19:45:08.573Z,2.60
2023-04-26T19:49:11.114Z,2.28
2023-04-26T19:53:15.070Z,2.47
2023-04-26T19:57:17.662Z,2.58
2023-04-26T20:01:21.650Z,2.60
2023-04-26T20:05:24.329Z,2.67
2023-04-26T20:09:26.830Z,2.60
2023-04-26T20:13:29.370Z,2.47
2023-04-26T20:17:33.254Z,2.80
2023-04-26T20:21:35.923Z,2.45
2023-04-26T20:25:38.395Z,2.40
2023-04-26T20:29:41.152Z,2.25
2023-04-26T20:33:45.033Z,2.00
2023-04-26T20:37:47.594Z,2.45
2023-04-26T20:41:50.129Z,2.30
2023-04-26T20:45:52.662Z,2.75
2023-04-26T20:49:56.548Z,2.30
2023-04-26T20:53:59.110Z,2.85
2023-04-26T20:58:01.631Z,3.65
